createdAt,value
2017-06-28T00:00:43.595Z,19.30
2017-06-28T00:03:11.070Z,19.30
2017-06-28T00:05:38.535Z,19.30
2017-06-28T00:08:06.022Z,19.30
2017-06-28T00:10:33.514Z,19.20
2017-06-28T00:13:01.075Z,19.20
2017-06-28T00:15:28.627Z,19.20
2017-06-28T00:17:56.086Z,19.20
2017-06-28T00:20:23.667Z,19.20
2017-06-28T00:22:51.922Z,19.20
2017-06-28T00:25:19.397Z,19.10
2017-06-28T00:27:47.660Z,19.40
2017-06-28T00:30:15.122Z,19.30
2017-06-28T00:32:43.352Z,19.40
2017-06-28T00:35:10.847Z,19.40
2017-06-28T00:37:38.395Z,19.40
2017-06-28T00:40:05.878Z,19.40
2017-06-28T00:42:34.109Z,19.50
2017-06-28T00:45:01.599Z,19.50
2017-06-28T00:47:29.863Z,19.50
2017-06-28T00:49:57.326Z,19.50
2017-06-28T00:52:24.873Z,19.50
2017-06-28T00:54:53.242Z,19.50
2017-06-28T00:57:20.714Z,19.50
2017-06-28T00:59:48.182Z,19.50
2017-06-28T01:02:16.851Z,19.50
2017-06-28T01:04:44.311Z,19.40
2017-06-28T01:07:11.865Z,19.50
2017-06-28T01:09:39.437Z,19.40
2017-06-28T01:12:06.902Z,19.40
2017-06-28T01:14:35.137Z,19.60
2017-06-28T01:17:02.718Z,19.60
2017-06-28T01:19:30.275Z,19.70
2017-06-28T01:21:57.746Z,19.70
2017-06-28T01:24:25.974Z,19.70
2017-06-28T01:26:53.455Z,19.60
2017-06-28T01:29:20.926Z,19.70
2017-06-28T01:31:49.190Z,19.60
2017-06-28T01:34:16.667Z,19.60
2017-06-28T01:36:44.918Z,19.50
2017-06-28T01:39:12.399Z,19.50
2017-06-28T01:41:40.663Z,19.60
2017-06-28T01:44:08.153Z,19.60
2017-06-28T01:46:35.612Z,19.60
2017-06-28T01:49:03.123Z,19.60
2017-06-28T01:51:30.591Z,19.70
2017-06-28T01:53:58.051Z,19.80
2017-06-28T01:56:26.314Z,19.80
2017-06-28T01:58:53.783Z,19.80
2017-06-28T02:01:22.002Z,19.70
2017-06-28T02:03:49.502Z,19.60
2017-06-28T02:06:16.964Z,19.70
2017-06-28T02:08:44.419Z,19.80
2017-06-28T02:11:11.971Z,19.80
2017-06-28T02:13:39.430Z,19.80
2017-06-28T02:16:06.886Z,19.80
2017-06-28T02:18:34.350Z,19.80
2017-06-28T02:21:01.899Z,19.70
2017-06-28T02:23:29.551Z,19.60
2017-06-28T02:25:57.022Z,19.50
2017-06-28T02:28:25.263Z,19.20
2017-06-28T02:30:52.718Z,19.20
2017-06-28T02:33:20.182Z,19.30
2017-06-28T02:35:47.756Z,19.40
2017-06-28T02:38:15.239Z,19.40
2017-06-28T02:40:42.697Z,19.30
2017-06-28T02:43:10.926Z,19.30
2017-06-28T02:45:38.498Z,19.30
2017-06-28T02:48:05.959Z,19.30
2017-06-28T02:50:33.422Z,19.20
2017-06-28T02:53:00.877Z,19.20
2017-06-28T02:55:28.334Z,19.20
2017-06-28T02:57:55.798Z,19.20
2017-06-28T03:00:24.043Z,19.20
2017-06-28T03:02:51.504Z,19.20
2017-06-28T03:05:18.985Z,19.10
2017-06-28T03:07:47.214Z,19.20
2017-06-28T03:10:14.671Z,19.10
2017-06-28T03:12:42.152Z,19.10
2017-06-28T03:15:09.715Z,19.20
2017-06-28T03:17:37.179Z,19.10
2017-06-28T03:20:04.730Z,19.10
2017-06-28T03:22:32.194Z,19.10
2017-06-28T03:24:59.646Z,18.90
2017-06-28T03:27:27.114Z,18.90
2017-06-28T03:29:55.342Z,18.80
2017-06-28T03:32:22.839Z,18.70
2017-06-28T03:34:50.299Z,18.70
2017-06-28T03:37:17.851Z,18.70
2017-06-28T03:39:45.306Z,18.70
2017-06-28T03:42:12.763Z,18.80
2017-06-28T03:44:40.238Z,18.90
2017-06-28T03:47:08.459Z,19.00
2017-06-28T03:49:35.958Z,19.00
2017-06-28T03:52:03.414Z,19.00
2017-06-28T03:54:30.871Z,19.00
2017-06-28T03:56:58.334Z,18.90
2017-06-28T03:59:26.566Z,18.90
2017-06-28T04:01:54.026Z,18.90
2017-06-28T04:04:21.495Z,18.90
2017-06-28T04:06:48.962Z,18.90
2017-06-28T04:09:16.418Z,18.90
2017-06-28T04:11:43.882Z,18.90
2017-06-28T04:14:12.146Z,18.90
2017-06-28T04:16:39.608Z,18.90
2017-06-28T04:19:07.070Z,19.00
2017-06-28T04:21:34.526Z,19.10
2017-06-28T04:24:01.993Z,19.10
2017-06-28T04:26:30.217Z,19.10
2017-06-28T04:28:57.678Z,19.00
2017-06-28T07:32:39.002Z,22.50
2017-06-28T07:35:06.502Z,22.50
2017-06-28T07:37:33.960Z,22.70
2017-06-28T07:40:02.178Z,22.00
2017-06-28T07:42:29.650Z,22.00
2017-06-28T07:44:57.123Z,22.10
2017-06-28T07:47:24.582Z,22.50
2017-06-28T07:49:52.131Z,22.90
2017-06-28T07:52:19.586Z,23.00
2017-06-28T07:54:47.042Z,23.00
2017-06-28T07:57:14.498Z,23.20
2017-06-28T07:59:41.960Z,23.30
2017-06-28T08:02:09.418Z,23.30
2017-06-28T08:04:36.871Z,23.00
2017-06-28T08:07:04.350Z,22.70
2017-06-28T08:09:32.610Z,22.10
2017-06-28T08:12:00.071Z,22.20
2017-06-28T08:14:28.310Z,23.00
2017-06-28T08:16:55.788Z,22.90
2017-06-28T08:19:23.246Z,22.60
2017-06-28T08:21:50.698Z,22.70
2017-06-28T08:24:18.162Z,22.90
2017-06-28T08:26:45.610Z,22.90
2017-06-28T08:29:13.079Z,22.90
2017-06-28T08:31:40.531Z,22.80
2017-06-28T08:34:07.994Z,22.60
2017-06-28T08:36:35.544Z,22.30
2017-06-28T08:39:03.032Z,22.60
2017-06-28T08:41:31.256Z,23.10
2017-06-28T08:43:58.738Z,23.10
2017-06-28T08:46:26.198Z,23.30
2017-06-28T08:48:53.649Z,23.40
2017-06-28T08:51:21.110Z,23.70
2017-06-28T08:53:48.570Z,24.00
2017-06-28T08:56:16.035Z,23.90
2017-06-28T08:58:44.263Z,23.00
2017-06-28T09:01:11.728Z,22.90
2017-06-28T09:03:39.187Z,23.10
2017-06-28T09:06:06.647Z,23.00
2017-06-28T09:08:34.098Z,22.70
2017-06-28T09:11:01.670Z,22.70
2017-06-28T09:13:29.126Z,23.20
2017-06-28T09:15:56.610Z,23.10
2017-06-28T09:18:24.827Z,23.20
2017-06-28T09:20:52.306Z,23.20
2017-06-28T09:23:19.764Z,23.20
2017-06-28T09:25:47.326Z,23.20
2017-06-28T09:28:14.788Z,23.70
2017-06-28T09:30:42.238Z,24.00
2017-06-28T09:33:09.703Z,24.40
2017-06-28T09:35:37.154Z,24.50
2017-06-28T09:38:04.621Z,24.80
2017-06-28T09:40:32.174Z,24.60
2017-06-28T09:42:59.634Z,24.40
2017-06-28T09:45:27.090Z,24.40
2017-06-28T09:47:54.546Z,24.20
2017-06-28T09:50:22.086Z,23.80
2017-06-28T09:52:49.554Z,23.60
2017-06-28T09:55:17.018Z,24.20
2017-06-28T09:57:45.247Z,24.30
2017-06-28T10:00:12.730Z,24.30
2017-06-28T10:02:40.182Z,24.40
2017-06-28T10:05:07.666Z,24.40
2017-06-28T10:07:35.114Z,24.40
2017-06-28T10:10:02.571Z,24.70
2017-06-28T10:12:30.026Z,24.30
2017-06-28T10:14:57.482Z,24.50
2017-06-28T10:17:24.946Z,25.00
2017-06-28T10:19:53.171Z,25.90
2017-06-28T10:22:20.640Z,25.90
2017-06-28T10:24:48.092Z,25.50
2017-06-28T10:27:15.550Z,25.40
2017-06-28T10:29:43.015Z,25.00
2017-06-28T10:32:10.475Z,25.10
2017-06-28T10:34:37.928Z,25.40
2017-06-28T10:37:05.398Z,25.60
2017-06-28T10:39:32.855Z,25.50
2017-06-28T10:42:00.318Z,25.00
2017-06-28T10:44:27.796Z,25.00
2017-06-28T10:46:56.006Z,24.60
2017-06-28T10:49:23.462Z,24.60
2017-06-28T10:51:50.922Z,24.20
2017-06-28T10:54:18.395Z,24.00
2017-06-28T10:56:45.847Z,23.90
2017-06-28T10:59:13.331Z,24.10
2017-06-28T11:01:40.879Z,24.60
2017-06-28T11:04:08.351Z,24.70
2017-06-28T11:06:36.610Z,24.60
2017-06-28T11:09:04.070Z,24.60
2017-06-28T11:11:31.617Z,24.60
2017-06-28T11:13:59.079Z,24.90
2017-06-28T11:16:26.530Z,25.40
2017-06-28T11:18:53.985Z,25.50
2017-06-28T11:21:21.450Z,25.70
2017-06-28T11:23:48.907Z,26.00
2017-06-28T11:26:16.374Z,26.10
2017-06-28T11:28:44.599Z,25.90
2017-06-28T11:31:12.070Z,25.90
2017-06-28T11:33:39.529Z,26.00
2017-06-28T11:36:07.015Z,25.90
2017-06-28T11:38:34.471Z,25.60
2017-06-28T11:41:01.933Z,25.40
2017-06-28T11:43:29.391Z,25.60
2017-06-28T11:45:57.605Z,25.20
2017-06-28T11:48:25.066Z,25.20
2017-06-28T11:50:52.558Z,25.20
2017-06-28T11:53:20.017Z,25.40
2017-06-28T11:55:47.478Z,25.00
2017-06-28T11:58:14.936Z,25.10
2017-06-28T12:00:42.396Z,25.00
2017-06-28T12:03:09.853Z,24.80
2017-06-28T12:05:37.313Z,25.10
2017-06-28T12:08:04.764Z,25.60
2017-06-28T12:10:32.316Z,25.80
2017-06-28T12:12:59.792Z,25.80
2017-06-28T12:15:28.011Z,25.50
2017-06-28T12:17:55.552Z,25.50
2017-06-28T12:20:23.017Z,25.20
2017-06-28T12:22:50.480Z,24.80
2017-06-28T12:25:17.937Z,25.20
2017-06-28T12:27:45.395Z,25.40
2017-06-28T12:30:12.881Z,25.60
2017-06-28T12:32:40.339Z,25.90
2017-06-28T12:35:07.898Z,25.70
2017-06-28T12:37:35.342Z,25.50
2017-06-28T12:40:02.830Z,25.40
2017-06-28T12:42:31.055Z,24.80
2017-06-28T12:44:58.518Z,24.70
2017-06-28T12:47:25.990Z,24.90
2017-06-28T12:49:53.547Z,24.70
2017-06-28T12:52:21.002Z,24.60
2017-06-28T12:54:48.450Z,25.10
2017-06-28T12:57:15.912Z,25.70
2017-06-28T12:59:43.484Z,26.10
2017-06-28T13:02:11.036Z,26.30
2017-06-28T13:04:38.494Z,26.00
2017-06-28T13:07:05.948Z,25.70
2017-06-28T13:09:33.512Z,25.70
2017-06-28T13:12:00.962Z,25.60
2017-06-28T13:14:28.427Z,25.70
2017-06-28T13:16:55.883Z,25.60
2017-06-28T13:19:23.439Z,25.40
2017-06-28T13:21:50.915Z,25.30
2017-06-28T13:24:19.139Z,25.50
2017-06-28T13:26:46.582Z,25.50
2017-06-28T13:29:14.048Z,25.50
2017-06-28T13:31:41.499Z,25.70
2017-06-28T13:34:08.999Z,26.10
2017-06-28T13:36:37.959Z,26.80
2017-06-28T13:39:05.419Z,26.90
2017-06-28T13:41:32.895Z,26.50
2017-06-28T13:44:00.354Z,26.50
2017-06-28T13:46:27.808Z,26.40
2017-06-28T13:48:55.293Z,26.20
2017-06-28T13:51:23.520Z,25.80
2017-06-28T13:53:50.993Z,25.80
2017-06-28T13:56:18.463Z,25.50
2017-06-28T13:58:45.909Z,25.20
2017-06-28T14:01:13.371Z,25.40
2017-06-28T14:03:40.917Z,26.20
2017-06-28T14:06:08.484Z,26.80
2017-06-28T14:08:36.048Z,27.20
2017-06-28T14:11:03.511Z,27.20
2017-06-28T14:13:30.968Z,27.30
2017-06-28T14:15:59.216Z,27.60
2017-06-28T14:18:26.658Z,27.60
2017-06-28T14:20:54.142Z,27.50
2017-06-28T14:23:21.594Z,27.20
2017-06-28T14:25:49.053Z,26.90
2017-06-28T14:28:16.509Z,26.50
2017-06-28T14:30:44.063Z,26.60
2017-06-28T14:33:11.520Z,26.50
2017-06-28T14:35:38.983Z,26.20
2017-06-28T14:38:06.442Z,26.20
2017-06-28T14:40:33.991Z,26.60
2017-06-28T14:43:01.467Z,26.80
2017-06-28T14:45:29.686Z,26.00
2017-06-28T14:47:57.136Z,26.00
2017-06-28T14:50:24.593Z,25.80
2017-06-28T14:52:52.053Z,25.70
2017-06-28T14:55:19.510Z,26.20
2017-06-28T14:57:46.966Z,26.60
2017-06-28T15:00:14.422Z,26.80
2017-06-28T15:02:41.879Z,26.70
2017-06-28T15:05:09.343Z,26.60
2017-06-28T15:07:36.825Z,26.80
2017-06-28T15:10:04.288Z,26.90
2017-06-28T15:12:31.739Z,26.80
2017-06-28T15:14:59.197Z,26.90
2017-06-28T15:17:26.655Z,27.30
2017-06-28T15:19:54.111Z,27.40
2017-06-28T15:22:21.567Z,27.30
2017-06-28T15:24:49.018Z,27.20
2017-06-28T15:27:16.510Z,27.30
2017-06-28T15:29:44.722Z,27.50
2017-06-28T15:32:12.209Z,27.50
2017-06-28T15:34:39.667Z,27.00
2017-06-28T15:37:07.130Z,26.80
2017-06-28T15:39:34.578Z,26.50
2017-06-28T15:42:02.048Z,26.20
2017-06-28T15:44:29.494Z,26.20
2017-06-28T15:46:57.046Z,26.30
2017-06-28T15:49:24.615Z,26.50
2017-06-28T15:51:52.063Z,26.40
2017-06-28T15:54:23.066Z,26.20
2017-06-28T15:56:50.518Z,26.10
2017-06-28T15:59:18.018Z,26.20
2017-06-28T16:01:45.480Z,26.70
2017-06-28T16:04:12.945Z,26.90
2017-06-28T16:06:41.198Z,26.90
2017-06-28T16:09:08.659Z,26.90
2017-06-28T16:11:36.111Z,27.20
2017-06-28T16:14:03.572Z,27.20
2017-06-28T16:16:31.034Z,27.30
2017-06-28T16:18:58.498Z,27.60
2017-06-28T16:21:26.763Z,27.80
2017-06-28T16:23:54.315Z,27.80
2017-06-28T16:26:21.771Z,27.50
2017-06-28T16:28:49.221Z,27.70
2017-06-28T16:31:16.674Z,27.60
2017-06-28T16:33:44.311Z,27.70
2017-06-28T16:36:11.862Z,27.90
2017-06-28T16:38:39.428Z,28.30
2017-06-28T16:41:06.887Z,28.10
2017-06-28T16:43:34.370Z,27.50
2017-06-28T16:46:01.831Z,27.00
2017-06-28T16:48:29.391Z,27.30
2017-06-28T16:50:56.862Z,26.90
2017-06-28T16:53:25.139Z,27.10
2017-06-28T16:55:53.398Z,27.10
2017-06-28T16:58:20.954Z,27.10
2017-06-28T17:00:48.409Z,27.10
2017-06-28T17:03:15.875Z,27.10
2017-06-28T17:05:43.391Z,27.30
2017-06-28T17:08:10.901Z,27.60
2017-06-28T17:10:38.351Z,28.10
2017-06-28T17:13:06.634Z,28.20
2017-06-28T17:15:34.887Z,28.10
2017-06-28T17:18:02.408Z,28.00
2017-06-28T17:20:29.864Z,28.10
2017-06-28T17:22:57.399Z,27.60
2017-06-28T17:25:24.848Z,26.90
2017-06-28T17:27:52.299Z,26.70
2017-06-28T17:30:20.635Z,26.70
2017-06-28T17:32:48.083Z,26.80
2017-06-28T17:35:15.712Z,26.20
2017-06-28T17:37:43.219Z,26.20
2017-06-28T17:40:10.845Z,26.20
2017-06-28T17:42:38.351Z,26.10
2017-06-28T17:45:05.863Z,25.90
2017-06-28T17:47:33.346Z,25.80
2017-06-28T17:50:00.811Z,25.80
2017-06-28T17:52:28.272Z,25.70
2017-06-28T17:54:55.734Z,25.70
2017-06-28T17:57:23.195Z,25.50
2017-06-28T17:59:51.446Z,25.50
2017-06-28T18:02:18.910Z,25.50
2017-06-28T18:04:46.358Z,25.50
2017-06-28T18:07:13.827Z,25.60
2017-06-28T18:09:41.342Z,25.60
2017-06-28T18:12:08.835Z,25.40
2017-06-28T18:14:36.291Z,25.30
2017-06-28T18:17:03.755Z,25.20
2017-06-28T18:19:31.215Z,25.10
2017-06-28T18:21:59.449Z,25.40
2017-06-28T18:24:26.961Z,25.40
2017-06-28T18:26:55.203Z,25.20
2017-06-28T18:29:22.671Z,25.20
2017-06-28T18:31:50.295Z,25.20
2017-06-28T18:34:17.755Z,24.80
2017-06-28T18:36:45.174Z,24.60
2017-06-28T18:39:23.797Z,24.50
2017-06-28T18:41:51.336Z,24.50
2017-06-28T18:44:18.797Z,24.40
2017-06-28T18:46:48.270Z,24.40
2017-06-28T18:49:18.403Z,24.30
2017-06-28T18:51:46.693Z,24.20
2017-06-28T18:54:14.941Z,24.10
2017-06-28T18:56:42.397Z,24.10
2017-06-28T18:59:09.854Z,24.00
2017-06-28T19:01:37.326Z,23.90
2017-06-28T19:04:05.543Z,23.80
2017-06-28T19:06:33.083Z,23.80
2017-06-28T19:09:00.534Z,23.80
2017-06-28T19:11:28.000Z,23.80
2017-06-28T19:13:58.142Z,23.60
2017-06-28T19:16:25.691Z,23.50
2017-06-28T19:18:53.191Z,23.50
2017-06-28T19:21:20.750Z,23.50
2017-06-28T19:23:48.265Z,23.40
2017-06-28T19:26:15.770Z,23.40
2017-06-28T19:28:43.225Z,23.30
2017-06-28T19:31:10.687Z,23.30
2017-06-28T19:33:38.973Z,23.30
2017-06-28T19:36:07.214Z,23.30
2017-06-28T19:38:34.850Z,23.30
2017-06-28T19:41:02.302Z,23.30
2017-06-28T19:43:29.828Z,23.20
2017-06-28T19:45:58.043Z,23.00
2017-06-28T19:48:25.498Z,23.00
2017-06-28T19:50:52.991Z,23.00
2017-06-28T19:53:20.479Z,22.90
2017-06-28T19:55:48.701Z,22.70
2017-06-28T19:58:16.158Z,22.70
2017-06-28T20:00:43.613Z,22.70
2017-06-28T20:03:11.076Z,22.70
2017-06-28T20:05:40.039Z,22.70
2017-06-28T20:08:07.643Z,22.70
2017-06-28T20:10:35.095Z,22.60
2017-06-28T20:13:02.546Z,22.60
2017-06-28T20:15:30.012Z,22.60
2017-06-28T20:17:57.467Z,22.60
2017-06-28T20:20:24.991Z,22.60
2017-06-28T20:22:52.496Z,22.50
2017-06-28T20:25:19.946Z,22.50
2017-06-28T20:27:47.398Z,22.50
2017-06-28T20:30:14.947Z,22.40
2017-06-28T20:32:42.406Z,22.40
2017-06-28T20:35:09.875Z,22.30
2017-06-28T20:37:38.099Z,22.30
2017-06-28T20:40:05.575Z,22.30
2017-06-28T20:42:33.051Z,22.30
2017-06-28T20:45:00.501Z,22.30
2017-06-28T20:47:27.970Z,22.20
2017-06-28T20:49:55.518Z,22.10
2017-06-28T20:52:22.986Z,22.00
2017-06-28T20:54:51.215Z,21.80
2017-06-28T20:57:18.704Z,21.70
2017-06-28T20:59:46.160Z,21.80
2017-06-28T21:02:13.626Z,21.80
2017-06-28T21:04:41.864Z,21.60
2017-06-28T21:07:09.318Z,21.60
2017-06-28T21:09:36.771Z,21.40
2017-06-28T21:12:04.359Z,21.20
2017-06-28T21:14:31.810Z,20.70
2017-06-28T21:16:59.273Z,20.30
2017-06-28T21:19:26.742Z,20.00
2017-06-28T21:21:54.202Z,20.00
2017-06-28T21:24:21.661Z,19.90
2017-06-28T21:26:49.882Z,19.70
2017-06-28T21:29:17.347Z,19.60
2017-06-28T21:31:44.832Z,19.50
2017-06-28T21:34:12.294Z,19.30
2017-06-28T21:36:40.521Z,19.20
2017-06-28T21:39:08.006Z,19.20
2017-06-28T21:41:35.464Z,19.00
2017-06-28T21:44:02.915Z,19.00
2017-06-28T21:46:30.486Z,18.90
2017-06-28T21:48:57.947Z,18.80
2017-06-28T21:51:25.412Z,18.80
2017-06-28T21:53:52.962Z,18.60
2017-06-28T21:56:20.522Z,18.60
2017-06-28T21:58:47.983Z,18.50
2017-06-28T22:02:36.934Z,18.40
2017-06-28T22:05:04.807Z,18.30
2017-06-28T22:07:32.362Z,18.30
2017-06-28T22:10:00.449Z,18.20
2017-06-28T22:12:28.678Z,18.10
2017-06-28T22:14:56.134Z,18.10
2017-06-28T22:17:35.240Z,18.00
2017-06-28T22:20:02.779Z,17.90
2017-06-28T22:22:30.994Z,17.90
2017-06-28T22:24:58.458Z,17.80
2017-06-28T22:27:25.918Z,17.80
2017-06-28T22:29:53.495Z,17.80
2017-06-28T22:32:20.955Z,17.70
2017-06-28T22:34:48.518Z,17.80
2017-06-28T22:37:16.070Z,17.70
2017-06-28T22:39:43.540Z,17.60
2017-06-28T22:42:11.762Z,17.60
2017-06-28T22:44:39.224Z,17.50
2017-06-28T22:47:06.678Z,17.70
2017-06-28T22:49:34.162Z,17.70
2017-06-28T22:52:01.626Z,17.80
2017-06-28T22:54:29.183Z,17.80
2017-06-28T22:56:56.666Z,17.60
2017-06-28T22:59:24.882Z,17.60
2017-06-28T23:01:52.361Z,17.60
2017-06-28T23:04:19.830Z,17.60
2017-06-28T23:06:47.283Z,17.60
2017-06-28T23:09:14.752Z,17.70
2017-06-28T23:11:42.209Z,17.80
2017-06-28T23:14:09.666Z,17.80
2017-06-28T23:16:37.899Z,18.00
2017-06-28T23:19:05.375Z,18.00
2017-06-28T23:21:32.838Z,18.00
2017-06-28T23:24:00.324Z,18.00
2017-06-28T23:26:28.548Z,17.60
2017-06-28T23:28:56.023Z,17.60
2017-06-28T23:31:23.586Z,17.60
2017-06-28T23:33:51.042Z,17.70
2017-06-28T23:36:18.499Z,17.70
2017-06-28T23:38:45.962Z,17.70
2017-06-28T23:41:13.510Z,17.50
2017-06-28T23:43:40.979Z,17.40
2017-06-28T23:46:08.453Z,17.40
2017-06-28T23:48:36.678Z,17.60
2017-06-28T23:51:04.147Z,17.60
2017-06-28T23:53:31.719Z,17.80
2017-06-28T23:55:59.183Z,17.90
2017-06-28T23:58:27.412Z,17.80
